Time;durP1;ratioP1;P1;durP2;ratioP2;P2;SDS_P1;SDS_P2;PMS_P1;PMS_P2;Temp;Humidity;BMP_temperature;BMP_pressure;BME280_temperature;BME280_humidity;BME280_pressure;Samples;Min_cycle;Max_cycle;Signal;HPM_P1;HPM_P2
2021/07/29 05:53:39;;;;;;;5.63;2.60;;;;;;;;;;10539853;28;20377;-83
2021/07/29 05:58:41;;;;;;;7.38;2.70;;;;;;;;;;10522215;28;20044;-84
2021/07/29 06:03:42;;;;;;;5.72;2.65;;;;;;;;;;10523164;28;20494;-83
2021/07/29 06:08:44;;;;;;;;;;;;;;;;;;10521492;28;20104;-83
2021/07/29 06:13:44;;;;;;;5.85;2.40;;;;;;;;;;10518712;28;19912;-84
2021/07/29 06:19:04;;;;;;;;;;;;;;;;;;10518276;28;20123;-84
2021/07/29 06:24:05;;;;;;;6.28;2.38;;;;;;;;;;10517289;28;19904;-84
2021/07/29 06:29:06;;;;;;;5.65;2.72;;;;;;;;;;10537726;28;20089;-84
2021/07/29 06:34:07;;;;;;;10.30;5.55;;;;;;;;;;10516599;28;20024;-85
2021/07/29 06:39:08;;;;;;;;;;;;;;;;;;10515996;28;20028;-84
2021/07/29 06:44:09;;;;;;;12.55;2.88;;;;;;;;;;10513832;28;19905;-84
2021/07/29 06:49:10;;;;;;;;;;;;;;;;;;10514382;28;20041;-84
2021/07/29 06:54:11;;;;;;;5.63;2.70;;;;;;;;;;10524606;28;19908;-85
2021/07/29 06:59:12;;;;;;;6.43;2.00;;;;;;;;;;10518838;28;20086;-86
2021/07/29 07:04:13;;;;;;;3.40;1.98;;;;;;;;;;10494332;28;20454;-86
2021/07/29 07:09:14;;;;;;;5.18;2.60;;;;;;;;;;10505648;28;20056;-86
2021/07/29 07:14:15;;;;;;;5.85;2.20;;;;;;;;;;10485035;28;20123;-87
2021/07/29 07:19:16;;;;;;;4.60;2.10;;;;;;;;;;10485908;28;20128;-86
2021/07/29 07:24:17;;;;;;;3.20;1.85;;;;;;;;;;10485649;28;20028;-85
2021/07/29 07:29:18;;;;;;;5.80;2.28;;;;;;;;;;10485093;28;20043;-85
2021/07/29 07:34:19;;;;;;;3.83;1.77;;;;;;;;;;10485010;28;20035;-85
2021/07/29 07:39:20;;;;;;;4.93;2.10;;;;;;;;;;10502073;28;20071;-85
2021/07/29 07:44:22;;;;;;;5.35;1.90;;;;;;;;;;10514513;28;20025;-86
2021/07/29 07:49:23;;;;;;;5.55;2.10;;;;;;;;;;10488210;28;20062;-85
2021/07/29 07:54:24;;;;;;;3.10;1.80;;;;;;;;;;10484662;28;20024;-85
2021/07/29 07:59:25;;;;;;;4.68;2.00;;;;;;;;;;10485933;28;20029;-86
2021/07/29 08:04:26;;;;;;;5.03;2.00;;;;;;;;;;10486863;28;20390;-85
2021/07/29 08:09:28;;;;;;;4.82;2.40;;;;;;;;;;10486218;28;20504;-84
2021/07/29 08:14:29;;;;;;;3.58;1.90;;;;;;;;;;10483896;28;20466;-84
2021/07/29 08:19:31;;;;;;;5.82;2.20;;;;;;;;;;10482735;28;20025;-85
2021/07/29 08:24:33;;;;;;;6.13;2.67;;;;;;;;;;10483423;28;20025;-83
2021/07/29 08:29:35;;;;;;;5.93;2.53;;;;;;;;;;10488554;28;20027;-81
2021/07/29 08:34:36;;;;;;;4.38;2.28;;;;;;;;;;10502561;28;20032;-83
2021/07/29 08:39:37;;;;;;;5.57;2.10;;;;;;;;;;10484503;28;20037;-82
2021/07/29 08:44:38;;;;;;;5.65;2.28;;;;;;;;;;10488459;28;20080;-83
2021/07/29 08:49:41;;;;;;;5.28;2.10;;;;;;;;;;10489860;28;20048;-84
2021/07/29 08:54:42;;;;;;;5.45;2.30;;;;;;;;;;10482834;28;20024;-84
2021/07/29 08:59:43;;;;;;;6.25;2.45;;;;;;;;;;10483840;28;20025;-85
2021/07/29 09:05:06;;;;;;;5.78;2.38;;;;;;;;;;10486715;28;20021;-84
2021/07/29 09:10:40;;;;;;;7.32;3.10;;;;;;;;;;10486245;28;20092;-86
2021/07/29 09:15:41;;;;;;;10.65;3.78;;;;;;;;;;10432079;28;20093;-87
2021/07/29 09:20:42;;;;;;;9.50;3.85;;;;;;;;;;10490941;28;20085;-86
2021/07/29 09:25:43;;;;;;;8.52;3.60;;;;;;;;;;10489729;28;20025;-86
2021/07/29 09:30:47;;;;;;;9.48;3.45;;;;;;;;;;10486678;28;20463;-81
2021/07/29 09:35:53;;;;;;;5.70;2.60;;;;;;;;;;10499470;28;20509;-82
2021/07/29 09:40:59;;;;;;;6.70;2.97;;;;;;;;;;10499172;28;20040;-81
2021/07/29 09:46:01;;;;;;;6.75;2.75;;;;;;;;;;10498936;28;20096;-81
2021/07/29 09:51:02;;;;;;;6.13;2.25;;;;;;;;;;10486513;28;20021;-82
2021/07/29 09:56:18;;;;;;;8.15;3.00;;;;;;;;;;10485366;28;20024;-82
2021/07/29 10:01:20;;;;;;;6.00;2.38;;;;;;;;;;10499742;28;20037;-82
2021/07/29 10:06:26;;;;;;;9.90;2.08;;;;;;;;;;10500111;28;20047;-81
2021/07/29 10:11:28;;;;;;;4.80;2.30;;;;;;;;;;10497402;28;20037;-82
2021/07/29 10:16:46;;;;;;;4.63;2.60;;;;;;;;;;10484251;28;20509;-84
2021/07/29 10:22:22;;;;;;;5.88;2.30;;;;;;;;;;10499598;28;20052;-84
2021/07/29 10:27:23;;;;;;;3.53;1.80;;;;;;;;;;10485948;28;20433;-84
2021/07/29 10:32:43;;;;;;;7.22;2.83;;;;;;;;;;10494232;28;20036;-83
2021/07/29 10:37:44;;;;;;;5.10;2.17;;;;;;;;;;10509007;28;20028;-84
2021/07/29 10:42:45;;;;;;;5.10;2.63;;;;;;;;;;10495931;28;20027;-86
2021/07/29 10:47:46;;;;;;;5.65;1.90;;;;;;;;;;10501855;28;20025;-84
2021/07/29 10:52:47;;;;;;;4.88;2.25;;;;;;;;;;10495850;28;20039;-84
2021/07/29 10:57:58;;;;;;;7.50;3.63;;;;;;;;;;10497286;28;20032;-85
2021/07/29 11:03:07;;;;;;;;;;;;;;;;;;10495762;28;20500;-85
2021/07/29 11:08:08;;;;;;;6.05;2.58;;;;;;;;;;10493609;28;19904;-84
2021/07/29 11:13:12;;;;;;;4.32;1.92;;;;;;;;;;10499440;28;20029;-81
2021/07/29 11:18:17;;;;;;;4.13;1.80;;;;;;;;;;10513240;28;20513;-81
2021/07/29 11:23:36;;;;;;;4.10;1.92;;;;;;;;;;10503627;28;20481;-81
2021/07/29 11:28:37;;;;;;;4.90;1.80;;;;;;;;;;10493503;22;20037;-80
2021/07/29 11:33:42;;;;;;;3.65;1.65;;;;;;;;;;10503041;28;20031;-81
2021/07/29 11:38:43;;;;;;;5.45;2.00;;;;;;;;;;10521935;28;20035;-81
2021/07/29 11:43:51;;;;;;;5.60;2.63;;;;;;;;;;10529218;28;20025;-82
2021/07/29 11:49:07;;;;;;;4.55;2.00;;;;;;;;;;10527607;28;20024;-81
2021/07/29 11:59:42;;;;;;;4.95;2.05;;;;;;;;;;10544752;28;20056;-80
2021/07/29 12:04:44;;;;;;;7.10;1.98;;;;;;;;;;10543864;28;20044;-81
2021/07/29 12:09:45;;;;;;;4.75;1.90;;;;;;;;;;10545645;28;20039;-81
2021/07/29 12:14:46;;;;;;;5.13;2.10;;;;;;;;;;10532148;28;20035;-82
2021/07/29 12:19:55;;;;;;;5.93;1.60;;;;;;;;;;10528049;28;20036;-81
2021/07/29 12:25:07;;;;;;;8.73;2.33;;;;;;;;;;10525363;28;20028;-81
2021/07/29 12:30:27;;;;;;;5.30;2.20;;;;;;;;;;10543459;28;20021;-80
2021/07/29 12:35:28;;;;;;;5.95;1.80;;;;;;;;;;10542837;28;20035;-80
2021/07/29 12:40:35;;;;;;;3.78;1.75;;;;;;;;;;10525142;28;20020;-81
2021/07/29 12:45:49;;;;;;;3.90;1.60;;;;;;;;;;10529381;28;20031;-79
2021/07/29 12:50:50;;;;;;;6.13;2.08;;;;;;;;;;10539474;28;20462;-79
2021/07/29 12:55:53;;;;;;;5.32;2.17;;;;;;;;;;10559337;28;20020;-79
2021/07/29 13:00:53;;;;;;;4.80;2.10;;;;;;;;;;10539571;28;20044;-80
2021/07/29 13:05:55;;;;;;;6.30;4.15;;;;;;;;;;10548707;28;20055;-83
2021/07/29 13:10:57;;;;;;;5.68;3.50;;;;;;;;;;10529598;28;20024;-83
2021/07/29 13:15:59;;;;;;;6.03;2.90;;;;;;;;;;10530749;28;20077;-82
2021/07/29 13:21:01;;;;;;;5.72;3.05;;;;;;;;;;10537654;28;20036;-83
2021/07/29 13:26:03;;;;;;;5.40;2.13;;;;;;;;;;10527884;28;20134;-84
2021/07/29 13:31:04;;;;;;;4.93;2.58;;;;;;;;;;10528776;28;20034;-83
2021/07/29 13:36:05;;;;;;;4.85;2.20;;;;;;;;;;10529083;28;20154;-83
2021/07/29 13:41:06;;;;;;;4.28;2.20;;;;;;;;;;10528854;28;20055;-83
2021/07/29 13:46:07;;;;;;;4.03;2.40;;;;;;;;;;10528466;28;20024;-82
2021/07/29 13:51:14;;;;;;;4.03;1.73;;;;;;;;;;10528783;28;20027;-84
2021/07/29 13:56:38;;;;;;;4.20;2.15;;;;;;;;;;10527092;28;20219;-85
2021/07/29 14:01:43;;;;;;;4.75;2.10;;;;;;;;;;10546973;28;20035;-81
2021/07/29 14:06:44;;;;;;;5.03;2.10;;;;;;;;;;10545603;28;20032;-84
2021/07/29 14:11:45;;;;;;;4.72;2.30;;;;;;;;;;10549228;28;20032;-81
2021/07/29 14:16:46;;;;;;;7.55;4.25;;;;;;;;;;10537174;28;20032;-78
2021/07/29 14:26:57;;;;;;;4.07;2.20;;;;;;;;;;10549927;28;20473;-80
2021/07/29 14:31:58;;;;;;;5.38;1.90;;;;;;;;;;10534753;28;20047;-78
2021/07/29 14:36:59;;;;;;;4.55;2.97;;;;;;;;;;10540866;28;20423;-85
2021/07/29 14:42:00;;;;;;;4.70;2.17;;;;;;;;;;10540094;28;20089;-85
2021/07/29 14:52:20;;;;;;;5.25;1.95;;;;;;;;;;10583142;28;20020;-82
2021/07/29 14:57:21;;;;;;;5.10;2.08;;;;;;;;;;10543609;28;20031;-86
2021/07/29 16:11:35;;;;;;;7.60;2.13;;;;;;;;;;10547470;28;20052;-79
2021/07/29 16:16:37;;;;;;;6.03;1.90;;;;;;;;;;10546026;28;20032;-80
2021/07/29 16:21:44;;;;;;;5.10;2.33;;;;;;;;;;10527030;28;20050;-83
2021/07/29 16:27:14;;;;;;;4.55;1.90;;;;;;;;;;10526545;28;20140;-85
2021/07/29 16:32:17;;;;;;;4.80;2.20;;;;;;;;;;10569250;28;20024;-84
2021/07/29 16:54:28;;;;;;;4.70;1.90;;;;;;;;;;10372905;28;20026;-85
2021/07/29 18:02:40;;;;;;;4.70;2.10;;;;;;;;;;10544713;28;20024;-85
2021/07/29 18:13:34;;;;;;;5.80;2.10;;;;;;;;;;10542496;28;20076;-84
2021/07/29 18:18:35;;;;;;;3.95;1.83;;;;;;;;;;10541018;28;20020;-84
2021/07/29 18:23:39;;;;;;;4.43;2.10;;;;;;;;;;10541955;28;20035;-84
2021/07/29 18:28:40;;;;;;;6.47;1.88;;;;;;;;;;10543760;28;20020;-85
2021/07/29 18:33:41;;;;;;;5.45;2.35;;;;;;;;;;10545689;28;20020;-84
2021/07/29 18:38:45;;;;;;;4.80;2.50;;;;;;;;;;10545337;28;20027;-84
2021/07/29 18:43:46;;;;;;;3.72;2.10;;;;;;;;;;10543489;28;20133;-83
2021/07/29 18:48:47;;;;;;;7.47;2.40;;;;;;;;;;10579610;28;20035;-83
2021/07/29 18:53:48;;;;;;;5.13;2.60;;;;;;;;;;10584114;28;20038;-83
2021/07/29 18:58:49;;;;;;;4.30;2.20;;;;;;;;;;10589319;28;20031;-84
2021/07/29 19:03:50;;;;;;;4.78;2.50;;;;;;;;;;10548597;28;20520;-84
2021/07/29 19:08:51;;;;;;;6.10;2.95;;;;;;;;;;10549259;28;20024;-84
2021/07/29 19:13:52;;;;;;;5.72;2.33;;;;;;;;;;10554368;28;20398;-84
2021/07/29 19:18:53;;;;;;;6.30;2.58;;;;;;;;;;10553250;28;20417;-84
2021/07/29 19:23:54;;;;;;;4.70;2.60;;;;;;;;;;10553600;28;20039;-84
2021/07/29 19:28:55;;;;;;;6.45;2.85;;;;;;;;;;10554934;28;20044;-84
2021/07/29 19:33:57;;;;;;;6.68;2.92;;;;;;;;;;10564260;28;20016;-83
2021/07/29 19:38:58;;;;;;;5.55;2.58;;;;;;;;;;10591606;28;20016;-83
2021/07/29 19:43:59;;;;;;;6.32;2.50;;;;;;;;;;10583038;28;20036;-84
2021/07/29 19:49:00;;;;;;;4.68;2.30;;;;;;;;;;10550745;28;20392;-84
2021/07/29 19:54:01;;;;;;;5.35;2.28;;;;;;;;;;10546795;28;20488;-84
2021/07/29 19:59:02;;;;;;;3.17;2.28;;;;;;;;;;10547371;28;20111;-84
2021/07/29 20:04:04;;;;;;;7.63;2.70;;;;;;;;;;10547415;28;20482;-85
2021/07/29 20:09:05;;;;;;;4.07;2.35;;;;;;;;;;10548462;28;20081;-85
2021/07/29 20:14:06;;;;;;;6.85;2.67;;;;;;;;;;10546228;28;20367;-85
